createdAt,value
2023-04-22T00:05:30.509Z,101142.66
2023-04-22T00:12:12.801Z,101136.47
2023-04-22T00:18:54.936Z,101128.56
2023-04-22T00:25:37.081Z,101124.03
2023-04-22T00:32:19.311Z,101111.78
2023-04-22T00:39:01.724Z,101115.22
2023-04-22T00:45:44.857Z,101103.00
2023-04-22T00:52:27.019Z,101102.97
2023-04-22T00:59:09.961Z,101104.69
2023-04-22T01:05:52.309Z,101103.75
2023-04-22T01:12:34.777Z,101106.31
2023-04-22T01:19:17.610Z,101114.03
2023-04-22T01:26:00.062Z,101111.19
2023-04-22T01:32:42.589Z,101115.31
2023-04-22T01:39:24.876Z,101121.16
2023-04-22T01:46:08.571Z,101123.50
2023-04-22T01:52:50.966Z,101116.41
2023-04-22T01:59:33.129Z,101112.88
2023-04-22T02:06:15.370Z,101113.75
2023-04-22T02:12:57.908Z,101102.38
2023-04-22T02:19:40.376Z,101105.84
2023-04-22T02:26:23.733Z,101088.44
2023-04-22T02:33:05.984Z,101092.75
2023-04-22T02:39:49.512Z,101087.50
2023-04-22T02:46:32.844Z,101084.97
2023-04-22T02:53:15.102Z,101081.56
2023-04-22T02:59:57.352Z,101083.38
2023-04-22T03:06:40.271Z,101086.09
2023-04-22T03:13:22.737Z,101077.59
2023-04-22T03:20:07.333Z,101070.81
2023-04-22T03:26:49.714Z,101072.66
2023-04-22T03:33:31.901Z,101057.03
2023-04-22T03:40:21.122Z,101063.16
2023-04-22T03:47:04.674Z,101064.16
2023-04-22T03:53:53.605Z,101059.00
2023-04-22T04:00:38.867Z,101056.53
2023-04-22T04:07:25.881Z,101056.72
2023-04-22T04:14:08.201Z,101057.81
2023-04-22T04:21:04.429Z,101062.34
2023-04-22T04:27:51.899Z,101060.72
2023-04-22T04:34:34.898Z,101060.81
2023-04-22T04:41:21.157Z,101056.53
2023-04-22T04:48:09.424Z,101064.44
2023-04-22T04:54:56.235Z,101066.25
2023-04-22T05:01:39.085Z,101060.22
2023-04-22T05:08:24.282Z,101068.16
2023-04-22T05:15:10.894Z,101071.63
2023-04-22T05:21:53.772Z,101069.88
2023-04-22T05:28:36.010Z,101070.75
2023-04-22T05:35:19.794Z,101068.97
2023-04-22T05:42:02.705Z,101059.31
2023-04-22T05:48:45.745Z,101059.22
2023-04-22T05:55:48.035Z,101054.72
2023-04-22T06:02:30.850Z,101054.59
2023-04-22T06:09:13.205Z,101057.03
2023-04-22T06:15:57.830Z,101047.22
2023-04-22T06:22:40.998Z,101039.97
2023-04-22T06:29:25.501Z,101032.66
2023-04-22T06:36:08.936Z,101034.97
2023-04-22T06:42:52.881Z,101033.78
2023-04-22T06:49:38.410Z,101036.09
2023-04-22T06:56:36.161Z,101044.44
2023-04-22T07:03:18.589Z,101027.28
2023-04-22T07:10:10.869Z,101028.56
2023-04-22T07:17:01.767Z,101029.78
2023-04-22T07:23:43.867Z,101020.50
2023-04-22T07:30:26.214Z,101018.22
2023-04-22T07:37:09.542Z,101021.13
2023-04-22T07:43:52.370Z,101019.44
2023-04-22T07:50:35.219Z,101018.81
2023-04-22T07:57:21.809Z,101027.97
2023-04-22T08:04:04.156Z,101029.22
2023-04-22T08:10:46.527Z,101024.03
2023-04-22T08:17:28.855Z,101022.06
2023-04-22T08:24:11.181Z,101017.72
2023-04-22T08:30:53.437Z,101015.97
2023-04-22T08:37:36.072Z,101014.16
2023-04-22T08:44:19.294Z,101021.66
2023-04-22T08:51:01.801Z,101012.41
2023-04-22T08:57:45.021Z,101006.56
2023-04-22T09:04:27.401Z,101006.81
2023-04-22T09:11:10.516Z,101000.50
2023-04-22T09:17:52.873Z,100994.03
2023-04-22T09:24:35.804Z,100993.16
2023-04-22T09:31:18.269Z,100989.56
2023-04-22T09:38:03.253Z,100987.72
2023-04-22T09:44:54.178Z,100989.72
2023-04-22T09:51:42.517Z,100981.28
2023-04-22T09:58:27.318Z,100977.22
2023-04-22T10:05:10.183Z,100972.38
2023-04-22T10:11:55.336Z,100958.00
2023-04-22T10:18:40.679Z,100953.31
2023-04-22T10:25:25.780Z,100952.13
2023-04-22T10:32:11.090Z,100937.25
2023-04-22T10:38:53.239Z,100938.81
2023-04-22T10:45:36.727Z,100921.63
2023-04-22T10:52:30.817Z,100925.13
2023-04-22T10:59:17.295Z,100918.03
2023-04-22T11:06:17.085Z,100913.59
2023-04-22T11:13:02.153Z,100906.81
2023-04-22T11:19:44.351Z,100902.25
2023-04-22T11:26:37.482Z,100894.41
2023-04-22T11:33:20.420Z,100881.34
2023-04-22T11:46:49.507Z,100883.22
2023-04-22T11:53:31.781Z,100882.47
2023-04-22T12:00:17.462Z,100880.03
2023-04-22T12:06:59.586Z,100878.63
2023-04-22T12:13:45.659Z,100857.47
2023-04-22T12:20:37.087Z,100854.50
2023-04-22T12:27:19.264Z,100865.84
2023-04-22T12:34:02.172Z,100844.53
2023-04-22T12:40:44.557Z,100840.13
2023-04-22T12:47:27.078Z,100834.09
2023-04-22T12:54:10.701Z,100819.78
2023-04-22T13:00:52.949Z,100818.41
2023-04-22T13:07:35.271Z,100808.28
2023-04-22T13:14:18.111Z,100801.81
2023-04-22T13:21:00.350Z,100791.75
2023-04-22T13:27:42.633Z,100784.53
2023-04-22T13:34:24.985Z,100776.91
2023-04-22T13:41:07.224Z,100775.16
2023-04-22T13:47:49.645Z,100770.44
2023-04-22T13:54:31.917Z,100767.63
2023-04-22T14:01:14.349Z,100755.34
2023-04-22T14:07:59.942Z,100750.47
2023-04-22T14:14:42.421Z,100745.31
2023-04-22T14:21:27.125Z,100736.69
2023-04-22T14:28:16.453Z,100739.06
2023-04-22T14:34:58.686Z,100733.94
2023-04-22T14:41:41.065Z,100730.72
2023-04-22T14:48:25.199Z,100717.03
2023-04-22T14:55:19.357Z,100712.97
2023-04-22T15:02:06.386Z,100707.06
2023-04-22T15:08:49.177Z,100703.22
2023-04-22T15:15:32.079Z,100687.88
2023-04-22T15:22:14.240Z,100681.34
2023-04-22T15:28:56.455Z,100683.41
2023-04-22T15:35:38.649Z,100685.91
2023-04-22T15:42:20.798Z,100677.63
2023-04-22T15:49:04.218Z,100678.81
2023-04-22T15:55:47.423Z,100689.50
2023-04-22T16:02:30.988Z,100679.69
2023-04-22T16:09:13.458Z,100661.69
2023-04-22T16:15:57.018Z,100664.09
2023-04-22T16:22:39.083Z,100655.38
2023-04-22T16:29:21.242Z,100651.53
2023-04-22T16:36:03.657Z,100656.91
2023-04-22T16:42:45.814Z,100648.31
2023-04-22T16:49:28.215Z,100644.56
2023-04-22T16:56:11.194Z,100633.63
2023-04-22T17:02:53.459Z,100629.50
2023-04-22T17:09:35.726Z,100633.63
2023-04-22T17:16:18.289Z,100624.72
2023-04-22T17:23:00.834Z,100622.16
2023-04-22T17:29:43.286Z,100623.88
2023-04-22T17:36:25.655Z,100628.13
2023-04-22T17:43:07.879Z,100625.28
2023-04-22T17:49:50.314Z,100629.41
2023-04-22T17:56:32.519Z,100624.53
2023-04-22T18:03:14.952Z,100639.97
2023-04-22T18:09:57.129Z,100643.34
2023-04-22T18:16:39.337Z,100644.78
2023-04-22T18:23:21.997Z,100645.31
2023-04-22T18:30:05.100Z,100643.78
2023-04-22T18:36:47.291Z,100642.31
2023-04-22T18:43:29.546Z,100654.03
2023-04-22T18:50:11.917Z,100653.09
2023-04-22T18:56:54.079Z,100648.63
2023-04-22T19:03:36.631Z,100651.47
2023-04-22T19:10:19.107Z,100653.25
2023-04-22T19:17:01.321Z,100646.34
2023-04-22T19:23:43.582Z,100647.28
2023-04-22T19:30:27.830Z,100638.28
2023-04-22T19:37:09.981Z,100631.19
2023-04-22T19:43:52.171Z,100624.91
2023-04-22T19:50:34.879Z,100621.94
2023-04-22T19:57:17.213Z,100625.22
2023-04-22T20:04:00.290Z,100621.69
2023-04-22T20:10:44.727Z,100620.66
2023-04-22T20:17:27.626Z,100613.16
2023-04-22T20:24:18.994Z,100609.28
2023-04-22T20:31:01.622Z,100611.50
2023-04-22T20:37:46.286Z,100610.25
2023-04-22T20:44:28.714Z,100611.66
2023-04-22T20:51:11.075Z,100614.16
2023-04-22T20:57:53.326Z,100618.31
2023-04-22T21:04:36.374Z,100609.25
2023-04-22T21:11:18.909Z,100602.75
2023-04-22T21:18:03.092Z,100606.66
2023-04-22T21:24:49.569Z,100592.81
2023-04-22T21:31:31.734Z,100589.56
2023-04-22T21:38:16.362Z,100590.66
2023-04-22T21:44:58.492Z,100587.31
2023-04-22T21:51:40.867Z,100588.38
2023-04-22T21:58:23.030Z,100585.88
2023-04-22T22:05:05.483Z,100587.72
2023-04-22T22:11:47.620Z,100598.44
2023-04-22T22:18:29.798Z,100595.00
2023-04-22T22:25:15.639Z,100599.34
2023-04-22T22:31:57.808Z,100594.09
2023-04-22T22:38:39.997Z,100592.28
2023-04-22T22:45:22.161Z,100585.22
2023-04-22T22:52:05.132Z,100575.50
2023-04-22T22:58:48.250Z,100578.03
2023-04-22T23:05:30.530Z,100584.03
2023-04-22T23:12:12.696Z,100576.09
2023-04-22T23:18:55.669Z,100579.56
2023-04-22T23:25:38.231Z,100574.22
2023-04-22T23:32:21.348Z,100561.81
2023-04-22T23:39:05.821Z,100563.50
2023-04-22T23:45:48.168Z,100559.03
2023-04-22T23:52:30.642Z,100559.81
2023-04-22T23:59:13.091Z,100551.03
